Norco, LA

4:15 AM CST on January 22, 2017 (GMT -0600)
Norco LA | | Change Station

Elev 4 ft 30.02 °N, 90.41 °W | Updated 7 seconds ago

Mostly Cloudy
Mostly Cloudy
69.2 °F
Feels Like 69.2 °F
N
0.0
Wind Variable Wind from WSW
Gusts 0.0 mph

Today
High -- | Low -- °F
--% Chance of Precip.
Yesterday
High -- | Low -- °F
Precip. -- in
Pressure 29.51 in
Visibility 5.0 miles
Clouds Overcast 1200 ft
Dew Point 41 °F
Humidity 36%
Rainfall 0.97 in
Snow Depth Not available.
6:56 AM 5:30 PM
Waning Crescent, 27% visible
METAR KMSY 220953Z 29004KT 5SM BR OVC012 21/20 A2950 RMK AO2 SLP992 T02060200 $
Pressure 29.51 in
Visibility 5.0 miles
Clouds Overcast 1200 ft
Dew Point 41 °F
Humidity 36%
Rainfall 0.97 in
Snow Depth Not available.
6:56 AM 5:30 PM
Waning Crescent, 27% visible
METAR KMSY 220953Z 29004KT 5SM BR OVC012 21/20 A2950 RMK AO2 SLP992 T02060200 $

Get Your Daily Forecast Email!

Thanks for signing up!

Be on the lookout for a verification email in your inbox.

You'll start receiving the daily forecast at 8 AM.

×

10-Day Weather Forecast

Almanac

Astronomy

Jan. 22, 2017 Rise Set
Actual Time
Civil Twilight
Nautical Twilight
Astronomical Twilight
Moon
Length of Visible Light
Length of Day
Tomorrow will be .
, % of the Moon is Illuminated

Today's Extremes

State Highs State Lows

Community

WunderPhotos

Upload Photos

1,962,540 photos uploaded!

WunderBlog® & News

Nearby

Air Quality

  Air Quality AQ Index Pollutant
Not available.

Snow Depth

Station Depth Elevation

Earthquake Activity

City Distance Mag. Time & Date
Minimum magnitude displayed is 2.5.

Coastal Water Temperatures

Place Temperature

Stations

Nearby Weather Stations

Station Location Temp. Windchill Dew Point Humidity Wind Precip. Elev Updated Type
                   

Watches & Warnings

Small Craft Advisory, Low Water Advisory
Issued: 3:53 AM CST Jan. 22, 2017 – National Weather Service

... Small Craft Advisory remains in effect from 6 am this morning
to 6 am CST Monday...
... Low water advisory in effect from 9 am this morning to noon
CST Monday...

The National Weather Service in New Orleans has issued a low
water advisory... which is in effect from 9 am this morning to
noon CST Monday.

* Winds... 25 to 30 knots gusts to 35 knots.

* Waves/seas... 5 to 6 feet.

* Water levels... up to 2 feet below normal.

Precautionary/preparedness actions...

A Small Craft Advisory means that wind speeds of 20 to 33 knots
are expected to produce hazardous wave conditions to small craft.
Inexperienced mariners... especially those operating smaller
vessels should avoid navigating in these conditions.

A low water advisory means water levels are expected to be
significantly below average. Mariners should use extreme caution
and transit at the slowest safe navigable speed to minimize
impact.